Time;durP1;ratioP1;P1;durP2;ratioP2;P2;SDS_P1;SDS_P2;PMS_P1;PMS_P2;Temp;Humidity;BMP_temperature;BMP_pressure;BME280_temperature;BME280_humidity;BME280_pressure;Samples;Min_cycle;Max_cycle;Signal;HPM_P1;HPM_P2
2020/12/26 00:01:28;;;;;;;11.63;2.70;;;12.50;64.80;;;;;;5035119;28;20462;-70
2020/12/26 00:03:54;;;;;;;8.38;2.30;;;12.50;64.70;;;;;;5034979;28;20025;-70
2020/12/26 00:06:21;;;;;;;9.88;2.60;;;12.60;64.80;;;;;;5034852;28;20201;-71
2020/12/26 00:08:48;;;;;;;10.02;2.58;;;12.60;64.50;;;;;;5034884;28;20521;-71
2020/12/26 00:11:15;;;;;;;7.55;2.13;;;12.60;64.30;;;;;;5016818;28;20081;-71
2020/12/26 00:13:42;;;;;;;9.43;2.67;;;12.60;64.40;;;;;;5035021;28;20025;-71
2020/12/26 00:16:09;;;;;;;9.95;3.13;;;12.60;64.30;;;;;;5034833;28;20025;-71
2020/12/26 00:18:35;;;;;;;9.48;3.10;;;12.60;64.40;;;;;;5034651;28;20112;-73
2020/12/26 00:21:10;;;;;;;9.77;3.60;;;12.60;64.30;;;;;;5034507;28;20101;-70
2020/12/26 00:23:36;;;;;;;14.75;5.78;;;12.60;64.50;;;;;;5034865;28;20017;-70
2020/12/26 00:26:02;;;;;;;11.18;4.25;;;12.60;64.90;;;;;;5034761;28;20076;-70
2020/12/26 00:28:28;;;;;;;12.05;4.80;;;12.40;65.60;;;;;;5034598;28;20034;-71
2020/12/26 00:30:54;;;;;;;14.65;5.68;;;12.50;65.80;;;;;;5034683;28;20021;-70
2020/12/26 00:33:19;;;;;;;12.82;5.30;;;12.40;66.10;;;;;;5034355;28;20083;-73
2020/12/26 00:35:45;;;;;;;11.80;5.05;;;12.40;66.30;;;;;;5034666;28;20062;-70
2020/12/26 00:38:11;;;;;;;11.50;5.10;;;12.50;66.10;;;;;;5034314;28;20075;-72
2020/12/26 00:40:36;;;;;;;12.82;5.10;;;12.30;65.80;;;;;;5035085;28;20024;-71
2020/12/26 00:43:02;;;;;;;11.02;4.65;;;12.30;66.50;;;;;;5035247;28;20138;-70
2020/12/26 00:45:28;;;;;;;11.63;4.88;;;12.30;66.50;;;;;;5034178;28;20596;-70
2020/12/26 00:47:53;;;;;;;13.98;4.95;;;12.40;66.60;;;;;;5034182;28;20030;-70
2020/12/26 00:50:19;;;;;;;12.98;4.80;;;12.30;66.20;;;;;;5034241;28;20022;-70
2020/12/26 00:52:45;;;;;;;8.82;4.78;;;12.20;66.40;;;;;;5034181;28;20471;-71
2020/12/26 00:55:10;;;;;;;11.45;4.97;;;12.30;66.40;;;;;;5034174;28;20022;-69
2020/12/26 00:57:36;;;;;;;13.73;4.93;;;12.20;66.60;;;;;;5033760;28;20096;-71
2020/12/26 01:00:04;;;;;;;11.10;4.32;;;12.30;66.60;;;;;;5033771;28;20021;-71
2020/12/26 01:02:29;;;;;;;10.77;4.45;;;12.20;66.40;;;;;;5033960;28;20029;-69
2020/12/26 01:04:55;;;;;;;10.15;4.75;;;12.20;66.50;;;;;;5034084;28;20021;-72
2020/12/26 01:07:21;;;;;;;15.18;5.03;;;12.20;66.40;;;;;;5033924;28;20079;-71
2020/12/26 01:09:46;;;;;;;11.55;4.93;;;12.20;66.50;;;;;;5033914;28;20404;-70
2020/12/26 01:12:12;;;;;;;11.65;4.50;;;12.10;67.20;;;;;;5033518;28;20037;-69
2020/12/26 01:14:38;;;;;;;10.07;4.32;;;12.20;67.40;;;;;;5033872;28;20025;-70
2020/12/26 01:17:03;;;;;;;10.90;4.65;;;12.20;67.20;;;;;;5033525;28;20090;-70
2020/12/26 01:19:29;;;;;;;9.68;4.30;;;12.00;66.80;;;;;;5033314;28;20463;-70
2020/12/26 01:21:55;;;;;;;11.95;4.72;;;12.00;67.00;;;;;;5033667;28;20029;-70
2020/12/26 01:24:22;;;;;;;8.88;3.78;;;12.00;67.40;;;;;;5033639;28;20028;-71
2020/12/26 01:26:48;;;;;;;13.90;4.68;;;12.00;67.20;;;;;;5033663;28;20428;-70
2020/12/26 01:29:15;;;;;;;9.85;4.28;;;11.80;67.40;;;;;;5033412;28;20018;-70
2020/12/26 01:31:42;;;;;;;8.45;3.72;;;11.80;68.10;;;;;;5033429;28;20025;-70
2020/12/26 01:34:08;;;;;;;9.48;4.30;;;11.90;68.10;;;;;;5033433;28;20132;-70
2020/12/26 01:36:34;;;;;;;8.90;3.63;;;12.00;67.90;;;;;;5033119;28;20069;-69
2020/12/26 01:39:00;;;;;;;8.60;3.30;;;12.00;67.20;;;;;;5033447;28;20099;-70
2020/12/26 01:41:26;;;;;;;8.18;3.53;;;12.10;67.30;;;;;;5033484;28;20064;-71
2020/12/26 01:44:04;;;;;;;11.05;3.72;;;12.00;67.00;;;;;;5033594;28;20031;-71
2020/12/26 01:46:32;;;;;;;7.78;3.50;;;11.80;67.50;;;;;;5033442;28;20080;-70
2020/12/26 01:49:00;;;;;;;10.15;3.88;;;11.60;67.80;;;;;;5033375;28;20025;-70
2020/12/26 01:51:29;;;;;;;9.32;3.55;;;11.60;68.70;;;;;;5033392;28;20026;-70
2020/12/26 01:53:55;;;;;;;9.00;3.75;;;11.60;68.40;;;;;;5033130;28;20336;-70
2020/12/26 01:56:22;;;;;;;11.88;4.15;;;11.50;68.70;;;;;;5033403;28;20039;-70
2020/12/26 01:58:47;;;;;;;8.90;3.03;;;11.50;69.00;;;;;;5033001;28;20065;-70
2020/12/26 02:01:13;;;;;;;11.50;5.32;;;11.50;68.60;;;;;;5033718;28;20075;-70
2020/12/26 02:03:40;;;;;;;9.90;4.05;;;11.50;68.50;;;;;;5016348;28;20060;-69
2020/12/26 02:06:06;;;;;;;9.35;3.20;;;11.40;68.80;;;;;;5016096;28;20442;-71
2020/12/26 02:08:34;;;;;;;9.52;3.70;;;11.30;69.20;;;;;;5032952;28;20049;-71
2020/12/26 02:11:01;;;;;;;8.38;3.60;;;11.30;69.00;;;;;;5033036;28;20046;-72
2020/12/26 02:13:27;;;;;;;11.82;3.92;;;11.30;69.40;;;;;;5033557;28;20029;-70
2020/12/26 02:16:06;;;;;;;8.10;3.88;;;11.40;69.60;;;;;;5033221;28;20030;-71
2020/12/26 02:18:33;;;;;;;10.88;3.63;;;11.40;69.30;;;;;;5032988;28;20029;-70
2020/12/26 02:21:00;;;;;;;8.55;3.30;;;11.40;69.90;;;;;;5032833;28;20060;-72
2020/12/26 02:23:26;;;;;;;7.80;3.28;;;11.50;69.40;;;;;;5036038;28;20041;-72
2020/12/26 02:25:58;;;;;;;12.05;3.58;;;11.30;69.60;;;;;;5037150;28;20025;-70
2020/12/26 02:28:25;;;;;;;8.65;3.13;;;11.30;69.90;;;;;;5036906;28;20032;-74
2020/12/26 02:30:52;;;;;;;7.35;3.10;;;11.30;70.30;;;;;;5036934;28;20036;-71
2020/12/26 02:33:17;;;;;;;8.70;3.22;;;11.30;70.00;;;;;;5036642;28;20033;-71
2020/12/26 02:35:47;;;;;;;6.65;3.17;;;11.30;69.40;;;;;;5036648;28;20479;-70
2020/12/26 02:38:14;;;;;;;7.50;3.20;;;11.30;69.80;;;;;;5036674;28;20041;-70
2020/12/26 02:40:40;;;;;;;7.38;3.00;;;11.40;69.80;;;;;;5036611;28;20021;-72
2020/12/26 02:43:12;;;;;;;5.95;2.90;;;11.30;70.00;;;;;;5036633;28;20036;-70
2020/12/26 02:45:37;;;;;;;6.60;2.83;;;11.30;69.30;;;;;;5036612;28;20026;-71
2020/12/26 02:48:03;;;;;;;8.43;3.17;;;11.10;69.50;;;;;;5036553;28;20029;-71
2020/12/26 02:50:28;;;;;;;7.00;3.10;;;11.10;70.40;;;;;;5036262;28;20021;-71
2020/12/26 02:52:54;;;;;;;5.85;2.80;;;11.10;70.20;;;;;;5036469;28;20021;-72
2020/12/26 02:55:20;;;;;;;6.93;2.70;;;11.20;70.00;;;;;;5036400;28;20121;-73
2020/12/26 02:57:45;;;;;;;6.97;2.83;;;11.10;69.80;;;;;;5034903;28;20072;-70
2020/12/26 03:00:11;;;;;;;9.40;2.42;;;11.20;69.70;;;;;;5036200;28;20021;-70
2020/12/26 03:02:37;;;;;;;5.13;2.45;;;11.30;69.60;;;;;;5035209;28;20051;-73
2020/12/26 03:05:02;;;;;;;11.05;2.80;;;11.20;69.00;;;;;;5036716;28;20032;-71
2020/12/26 03:07:28;;;;;;;11.80;3.35;;;11.10;69.40;;;;;;5036306;28;20029;-71
2020/12/26 03:09:53;;;;;;;10.70;2.67;;;11.00;69.00;;;;;;5035809;28;20025;-71
2020/12/26 03:12:19;;;;;;;5.50;2.45;;;11.00;69.50;;;;;;5036291;28;20386;-72
2020/12/26 03:14:45;;;;;;;8.77;2.65;;;10.80;69.60;;;;;;5036055;28;20147;-70
2020/12/26 03:17:10;;;;;;;4.93;2.45;;;10.70;69.80;;;;;;5035793;28;20065;-70
2020/12/26 03:19:36;;;;;;;6.75;2.42;;;10.80;70.30;;;;;;5036342;28;20022;-71
2020/12/26 03:22:02;;;;;;;7.00;2.40;;;10.80;69.90;;;;;;5035845;28;20026;-70
2020/12/26 03:24:27;;;;;;;7.05;2.30;;;10.80;69.80;;;;;;5035978;28;20430;-72
2020/12/26 03:26:53;;;;;;;5.70;2.42;;;10.80;69.70;;;;;;5036039;28;20471;-71
2020/12/26 03:29:19;;;;;;;6.70;2.60;;;10.70;69.70;;;;;;5035984;28;20049;-72
2020/12/26 03:31:44;;;;;;;7.10;2.30;;;10.70;69.90;;;;;;5035911;28;20037;-72
2020/12/26 03:34:10;;;;;;;9.70;2.30;;;10.70;69.80;;;;;;5035450;28;20021;-69
2020/12/26 03:36:35;;;;;;;5.78;2.13;;;10.70;69.80;;;;;;5035662;28;20033;-69
2020/12/26 03:39:01;;;;;;;7.05;2.58;;;10.70;69.50;;;;;;5035803;28;20026;-69
2020/12/26 03:41:27;;;;;;;7.68;2.40;;;10.70;69.60;;;;;;5035427;28;20037;-71
2020/12/26 03:43:52;;;;;;;10.43;2.88;;;10.60;69.60;;;;;;5035754;28;20025;-70
2020/12/26 03:46:18;;;;;;;10.18;2.70;;;10.50;70.10;;;;;;5034331;28;20021;-70
2020/12/26 03:48:44;;;;;;;6.25;2.60;;;10.60;70.50;;;;;;5035753;28;20414;-70
2020/12/26 03:51:09;;;;;;;6.97;2.25;;;10.70;70.30;;;;;;5036374;28;20470;-71
2020/12/26 03:53:35;;;;;;;6.35;2.40;;;10.70;69.90;;;;;;5036191;28;20021;-70
2020/12/26 03:56:01;;;;;;;4.88;2.00;;;10.80;69.40;;;;;;5035346;28;20489;-70
2020/12/26 03:58:26;;;;;;;7.30;2.47;;;10.70;69.50;;;;;;5035379;28;20061;-69
2020/12/26 04:00:52;;;;;;;8.38;2.83;;;10.60;69.80;;;;;;5035344;28;20034;-69
2020/12/26 04:03:17;;;;;;;6.85;2.30;;;10.60;69.90;;;;;;5035321;28;20033;-70
2020/12/26 04:05:43;;;;;;;7.97;2.40;;;10.50;69.70;;;;;;5035006;28;20037;-70
2020/12/26 04:08:09;;;;;;;6.88;2.35;;;10.50;70.50;;;;;;5035053;28;20017;-71
2020/12/26 04:10:34;;;;;;;7.15;2.33;;;10.50;70.40;;;;;;5034884;28;20085;-69
2020/12/26 04:13:00;;;;;;;5.93;2.60;;;10.50;70.30;;;;;;5033589;28;20052;-69
2020/12/26 04:15:26;;;;;;;5.28;2.50;;;10.50;70.50;;;;;;5034908;28;20065;-70
2020/12/26 04:17:51;;;;;;;5.90;2.92;;;10.60;70.30;;;;;;5034808;28;20043;-69
2020/12/26 04:20:17;;;;;;;5.88;2.50;;;10.50;70.10;;;;;;5034688;28;20033;-70
2020/12/26 04:22:43;;;;;;;7.20;2.90;;;10.60;70.30;;;;;;5034763;28;20092;-69
2020/12/26 04:25:08;;;;;;;6.70;2.58;;;10.70;69.90;;;;;;5034770;28;20037;-70
2020/12/26 04:27:34;;;;;;;7.72;2.60;;;10.60;69.90;;;;;;5034712;28;20026;-69
2020/12/26 04:30:00;;;;;;;6.55;2.70;;;10.60;69.60;;;;;;5034600;28;20026;-70
2020/12/26 04:32:25;;;;;;;4.97;2.80;;;10.60;69.60;;;;;;5033230;28;20059;-70
2020/12/26 04:34:51;;;;;;;6.68;2.65;;;10.60;69.60;;;;;;5034531;28;20044;-70
2020/12/26 04:37:16;;;;;;;6.10;2.50;;;10.60;69.40;;;;;;5035052;28;20040;-71
2020/12/26 04:39:43;;;;;;;4.55;2.40;;;10.50;69.50;;;;;;5034651;28;20021;-69
2020/12/26 04:42:10;;;;;;;5.18;2.25;;;10.40;69.70;;;;;;5035190;28;20513;-69
2020/12/26 04:44:36;;;;;;;6.88;2.50;;;10.30;69.70;;;;;;5034003;28;20072;-69
2020/12/26 04:47:09;;;;;;;5.15;2.30;;;10.30;69.80;;;;;;5034220;28;20033;-70
2020/12/26 04:49:38;;;;;;;3.53;1.45;;;10.50;70.00;;;;;;5034076;28;20033;-70
2020/12/26 04:52:04;;;;;;;6.07;1.88;;;10.50;69.80;;;;;;5034250;28;20029;-71
2020/12/26 04:54:33;;;;;;;3.65;1.70;;;10.60;69.50;;;;;;5034270;28;20056;-70
2020/12/26 04:56:58;;;;;;;5.03;2.03;;;10.70;68.80;;;;;;5016283;28;20080;-70
2020/12/26 04:59:25;;;;;;;4.03;1.65;;;10.70;68.80;;;;;;5033775;28;20033;-70
2020/12/26 05:01:51;;;;;;;4.88;1.75;;;10.70;68.80;;;;;;5034118;28;20021;-68
2020/12/26 05:04:18;;;;;;;3.67;1.52;;;10.60;68.60;;;;;;5034209;28;20138;-71
2020/12/26 05:06:52;;;;;;;7.55;2.10;;;10.40;68.90;;;;;;5033911;28;20092;-70
2020/12/26 05:09:20;;;;;;;3.95;1.58;;;10.30;69.30;;;;;;5034009;28;20044;-71
2020/12/26 05:11:56;;;;;;;5.90;1.75;;;10.30;69.90;;;;;;5033563;28;20103;-72
2020/12/26 05:14:23;;;;;;;4.15;1.77;;;10.30;69.20;;;;;;5033935;28;20463;-72
2020/12/26 05:16:49;;;;;;;7.22;1.70;;;10.40;69.80;;;;;;5015999;28;20038;-71
2020/12/26 05:19:15;;;;;;;5.18;1.80;;;10.40;69.50;;;;;;5033588;28;20474;-70
2020/12/26 05:21:41;;;;;;;5.50;1.77;;;10.30;69.50;;;;;;5033648;28;20025;-72
2020/12/26 05:24:08;;;;;;;7.25;2.22;;;10.30;69.90;;;;;;5033720;28;20036;-70
2020/12/26 05:26:48;;;;;;;3.28;1.67;;;10.30;69.80;;;;;;5033645;28;20075;-74
2020/12/26 05:29:16;;;;;;;4.57;2.00;;;10.30;69.60;;;;;;5033810;28;20537;-71
2020/12/26 05:31:55;;;;;;;5.82;1.90;;;10.30;69.80;;;;;;5033437;28;20029;-73
2020/12/26 05:34:32;;;;;;;6.20;2.13;;;10.30;69.60;;;;;;5033664;28;20037;-73
2020/12/26 05:37:00;;;;;;;3.75;2.00;;;10.40;69.50;;;;;;5033578;28;20025;-74
2020/12/26 05:39:39;;;;;;;5.88;1.73;;;10.30;69.10;;;;;;5033452;28;20025;-73
2020/12/26 05:42:07;;;;;;;6.63;1.80;;;10.40;68.80;;;;;;5033554;28;20382;-74
2020/12/26 05:44:36;;;;;;;3.75;1.95;;;10.20;68.80;;;;;;5033444;28;20026;-73
2020/12/26 05:47:04;;;;;;;6.05;1.92;;;10.10;69.50;;;;;;5033279;28;20032;-72
2020/12/26 05:49:38;;;;;;;4.15;2.08;;;10.20;69.80;;;;;;5033230;28;20040;-72
2020/12/26 05:52:07;;;;;;;;;;;10.30;69.10;;;;;;5034096;28;20508;-73
2020/12/26 05:54:34;;;;;;;5.57;1.85;;;10.40;69.80;;;;;;5033300;28;19905;-73
2020/12/26 05:57:26;;;;;;;4.28;1.90;;;10.40;68.90;;;;;;5033293;28;20022;-74
2020/12/26 05:59:56;;;;;;;4.55;2.05;;;10.40;69.00;;;;;;5029453;28;20037;-73
2020/12/26 06:02:27;;;;;;;5.15;2.33;;;10.30;69.00;;;;;;5033331;28;20056;-73
2020/12/26 06:05:00;;;;;;;5.93;2.10;;;10.30;68.90;;;;;;5033218;28;20021;-73
2020/12/26 06:07:36;;;;;;;7.03;2.55;;;10.20;69.10;;;;;;5033276;28;20544;-73
2020/12/26 06:10:08;;;;;;;7.07;2.38;;;10.20;69.50;;;;;;5032893;28;20018;-73
2020/12/26 06:12:34;;;;;;;7.25;2.40;;;10.20;70.30;;;;;;5033037;28;20021;-73
2020/12/26 06:15:00;;;;;;;4.75;1.90;;;10.10;69.60;;;;;;5033075;28;20021;-73
2020/12/26 06:17:33;;;;;;;4.28;1.95;;;10.00;69.50;;;;;;5032985;28;20482;-70
2020/12/26 06:20:02;;;;;;;3.80;1.90;;;9.90;70.90;;;;;;5033156;28;20025;-73
2020/12/26 06:22:47;;;;;;;4.15;2.15;;;9.90;71.20;;;;;;5033336;28;20030;-73
2020/12/26 06:25:18;;;;;;;4.72;1.70;;;9.80;71.00;;;;;;5033339;28;20032;-73
2020/12/26 06:27:58;;;;;;;3.85;1.92;;;9.80;71.10;;;;;;5032996;28;20025;-72
2020/12/26 06:30:24;;;;;;;6.97;1.80;;;9.90;71.00;;;;;;5032968;28;20053;-73
2020/12/26 06:32:51;;;;;;;7.78;2.30;;;9.90;71.10;;;;;;5033069;28;20075;-72
2020/12/26 06:35:19;;;;;;;6.13;2.13;;;9.90;70.90;;;;;;5032744;28;20021;-73
2020/12/26 06:37:46;;;;;;;8.52;2.10;;;9.90;71.00;;;;;;5032842;28;20045;-71
2020/12/26 06:40:23;;;;;;;4.97;1.90;;;10.00;70.00;;;;;;5032751;28;20029;-71
2020/12/26 06:42:49;;;;;;;6.50;2.30;;;10.10;69.50;;;;;;5032789;28;20029;-73
2020/12/26 06:45:32;;;;;;;5.65;1.85;;;10.10;69.10;;;;;;5032709;28;20033;-72
2020/12/26 06:47:58;;;;;;;3.08;1.52;;;10.20;69.30;;;;;;5033112;28;20041;-73
2020/12/26 06:50:34;;;;;;;5.22;1.80;;;10.20;69.00;;;;;;5032588;28;20033;-73
2020/12/26 06:53:00;;;;;;;4.78;1.60;;;10.10;68.90;;;;;;5032863;28;20033;-73
2020/12/26 06:55:42;;;;;;;4.53;1.75;;;10.10;69.00;;;;;;5032836;28;20024;-72
2020/12/26 06:58:28;;;;;;;6.25;1.70;;;10.10;69.10;;;;;;5032766;28;20042;-74
2020/12/26 07:00:54;;;;;;;5.90;2.00;;;10.00;68.80;;;;;;5031954;28;20031;-73
2020/12/26 07:03:24;;;;;;;6.75;2.85;;;9.90;70.00;;;;;;5032669;28;20040;-71
2020/12/26 07:05:52;;;;;;;6.55;2.65;;;9.80;70.00;;;;;;5032601;28;20033;-72
2020/12/26 07:08:32;;;;;;;5.45;1.88;;;9.70;70.10;;;;;;5016224;28;20060;-73
2020/12/26 07:11:22;;;;;;;5.13;2.00;;;9.80;70.50;;;;;;5036921;28;20053;-71
2020/12/26 07:13:52;;;;;;;5.72;1.80;;;9.90;70.10;;;;;;5037323;28;20112;-71
2020/12/26 07:16:37;;;;;;;5.05;1.67;;;9.90;70.10;;;;;;5036677;28;20036;-73
2020/12/26 07:19:22;;;;;;;5.28;1.52;;;10.00;69.20;;;;;;5036068;28;20057;-71
2020/12/26 07:21:54;;;;;;;4.22;1.65;;;9.90;69.70;;;;;;5035944;28;20521;-69
2020/12/26 07:24:23;;;;;;;5.40;1.63;;;9.80;69.70;;;;;;5035685;28;20028;-72
2020/12/26 07:26:49;;;;;;;3.45;1.50;;;9.70;70.10;;;;;;5035909;28;20121;-71
2020/12/26 07:29:25;;;;;;;4.60;1.70;;;9.80;70.50;;;;;;5035560;28;20482;-71
2020/12/26 07:31:51;;;;;;;7.07;1.80;;;9.90;70.30;;;;;;5035787;28;20041;-72
2020/12/26 07:34:36;;;;;;;6.90;1.90;;;10.00;68.90;;;;;;5035941;28;20489;-72
2020/12/26 07:37:03;;;;;;;12.70;6.07;;;10.00;68.70;;;;;;5035954;28;20033;-71
2020/12/26 07:39:29;;;;;;;8.90;3.17;;;10.00;68.80;;;;;;5035717;28;20025;-72
2020/12/26 07:41:56;;;;;;;6.63;2.15;;;9.90;70.10;;;;;;5035386;28;20083;-71
2020/12/26 07:44:27;;;;;;;5.78;1.70;;;9.90;70.50;;;;;;5035466;28;20053;-69
2020/12/26 07:46:55;;;;;;;6.30;2.00;;;9.90;70.20;;;;;;5035520;28;20025;-71
2020/12/26 07:49:22;;;;;;;3.67;1.70;;;10.00;69.20;;;;;;5035242;28;20033;-71
2020/12/26 07:52:05;;;;;;;3.45;1.67;;;10.10;69.00;;;;;;5035356;28;20550;-72
2020/12/26 07:54:31;;;;;;;5.45;1.60;;;10.10;68.90;;;;;;5035536;28;20096;-72
2020/12/26 07:56:57;;;;;;;5.25;1.80;;;10.20;68.40;;;;;;5035549;28;20113;-70
2020/12/26 07:59:24;;;;;;;5.53;2.15;;;10.20;68.10;;;;;;5035657;28;20375;-70
2020/12/26 08:01:54;;;;;;;4.65;1.70;;;10.20;68.30;;;;;;5035726;28;20022;-71
2020/12/26 08:04:21;;;;;;;4.63;1.88;;;10.40;67.70;;;;;;5035326;28;20018;-71
2020/12/26 08:06:48;;;;;;;6.00;2.20;;;10.40;67.20;;;;;;5035316;28;20033;-72
2020/12/26 08:09:15;;;;;;;4.78;2.15;;;10.40;67.10;;;;;;5035432;28;20025;-72
2020/12/26 08:11:42;;;;;;;4.88;2.13;;;10.40;67.20;;;;;;5035243;28;20041;-70
2020/12/26 08:14:08;;;;;;;7.35;2.13;;;10.40;67.00;;;;;;5035366;28;20087;-71
2020/12/26 08:16:38;;;;;;;5.53;2.58;;;10.20;67.30;;;;;;5035137;28;20036;-68
2020/12/26 08:19:04;;;;;;;6.20;2.38;;;10.20;67.50;;;;;;5034904;28;20463;-71
2020/12/26 08:21:31;;;;;;;4.95;2.33;;;10.10;68.00;;;;;;5034139;28;20025;-69
2020/12/26 08:24:02;;;;;;;3.92;2.00;;;10.20;67.90;;;;;;5035012;28;20140;-72
2020/12/26 08:26:29;;;;;;;4.20;2.10;;;10.20;67.90;;;;;;5035037;28;20029;-70
2020/12/26 08:29:05;;;;;;;10.13;4.00;;;10.10;68.10;;;;;;5017547;28;20048;-73
2020/12/26 08:31:33;;;;;;;7.78;2.53;;;10.10;67.70;;;;;;5034930;28;20112;-71
2020/12/26 08:34:22;;;;;;;9.93;2.40;;;9.90;68.80;;;;;;5034881;28;20100;-72
2020/12/26 08:36:57;;;;;;;6.68;2.67;;;9.80;68.70;;;;;;5034743;28;20095;-69
2020/12/26 08:39:24;;;;;;;9.02;3.30;;;9.70;69.00;;;;;;5034578;28;20018;-70
2020/12/26 08:41:53;;;;;;;8.63;2.45;;;9.70;69.20;;;;;;5034949;28;20121;-70
2020/12/26 08:44:19;;;;;;;5.38;2.63;;;9.60;69.40;;;;;;5017795;28;20036;-71
2020/12/26 08:46:46;;;;;;;6.32;2.53;;;9.60;69.40;;;;;;5035813;28;20026;-69
2020/12/26 08:49:13;;;;;;;6.65;2.22;;;9.60;69.70;;;;;;5035180;28;20029;-71
2020/12/26 08:51:41;;;;;;;4.40;1.98;;;9.50;69.50;;;;;;5035072;28;20057;-69
2020/12/26 08:54:20;;;;;;;4.38;1.75;;;9.60;69.30;;;;;;5034522;28;20083;-70
2020/12/26 08:56:46;;;;;;;4.25;1.70;;;9.60;69.00;;;;;;5016495;28;20033;-71
2020/12/26 08:59:12;;;;;;;6.20;1.92;;;9.60;68.90;;;;;;5034159;28;20033;-69
2020/12/26 09:01:38;;;;;;;3.90;1.70;;;9.70;68.90;;;;;;5034347;28;20034;-70
2020/12/26 09:04:13;;;;;;;4.45;1.58;;;9.70;68.50;;;;;;5034181;28;20108;-71
2020/12/26 09:06:41;;;;;;;5.07;1.92;;;9.70;68.50;;;;;;5034299;28;20026;-71
2020/12/26 09:09:20;;;;;;;4.47;1.60;;;9.70;68.50;;;;;;5034020;28;20075;-72
2020/12/26 09:11:59;;;;;;;4.10;1.63;;;9.80;68.10;;;;;;5033613;28;20065;-71
2020/12/26 09:14:24;;;;;;;5.38;1.80;;;9.80;68.10;;;;;;5034079;28;20482;-69
2020/12/26 09:17:01;;;;;;;3.83;1.92;;;9.90;68.30;;;;;;5033897;28;20028;-71
2020/12/26 09:19:27;;;;;;;4.07;1.60;;;9.90;67.90;;;;;;5016139;28;20491;-71
2020/12/26 09:22:06;;;;;;;3.05;1.40;;;9.90;67.60;;;;;;5033758;28;20021;-71
2020/12/26 09:24:32;;;;;;;4.53;1.80;;;10.00;67.10;;;;;;5033912;28;20029;-71
2020/12/26 09:26:58;;;;;;;4.20;1.70;;;10.10;66.70;;;;;;5034058;28;20505;-71
2020/12/26 09:29:24;;;;;;;2.60;1.40;;;10.00;66.40;;;;;;5033789;28;20061;-74
2020/12/26 09:31:51;;;;;;;4.85;1.75;;;10.00;66.40;;;;;;5033402;28;20534;-72
2020/12/26 09:34:18;;;;;;;5.30;2.15;;;9.90;67.50;;;;;;5033451;28;20471;-71
2020/12/26 09:36:45;;;;;;;4.53;1.80;;;9.90;67.40;;;;;;5033523;28;20034;-71
2020/12/26 09:39:11;;;;;;;5.05;2.42;;;10.00;66.50;;;;;;5033416;28;20053;-71
2020/12/26 09:41:48;;;;;;;5.85;2.70;;;10.00;66.30;;;;;;5033495;28;20061;-71
2020/12/26 09:44:14;;;;;;;6.25;2.65;;;10.00;66.20;;;;;;5033349;28;20040;-71
2020/12/26 09:46:41;;;;;;;8.85;2.30;;;10.00;66.20;;;;;;5033425;28;20109;-71
2020/12/26 09:49:08;;;;;;;6.28;1.70;;;9.90;67.10;;;;;;5033201;28;20029;-70
2020/12/26 09:51:34;;;;;;;5.68;2.20;;;9.90;67.30;;;;;;5033275;28;20036;-73
2020/12/26 09:53:59;;;;;;;3.92;1.75;;;9.80;67.50;;;;;;5033315;28;20033;-69
2020/12/26 09:56:26;;;;;;;5.00;2.10;;;9.80;67.70;;;;;;5033255;28;20026;-73
2020/12/26 09:58:52;;;;;;;5.60;2.15;;;9.90;67.60;;;;;;5033410;28;20111;-71
2020/12/26 10:01:20;;;;;;;3.85;1.80;;;10.00;66.60;;;;;;5033772;28;20036;-72
2020/12/26 10:03:48;;;;;;;10.60;2.55;;;10.00;66.60;;;;;;5033281;28;20041;-72
2020/12/26 10:06:15;;;;;;;3.75;1.90;;;10.10;66.40;;;;;;5033147;28;20013;-71
2020/12/26 10:08:45;;;;;;;4.75;2.00;;;10.20;66.00;;;;;;5033370;28;20029;-72
2020/12/26 10:11:16;;;;;;;4.40;1.90;;;10.20;66.00;;;;;;5033355;28;20057;-72
2020/12/26 10:13:43;;;;;;;4.45;1.80;;;10.20;65.90;;;;;;5033019;28;20026;-72
2020/12/26 10:16:09;;;;;;;6.22;2.05;;;10.30;65.60;;;;;;5033084;28;20032;-74
2020/12/26 10:18:35;;;;;;;3.80;1.90;;;10.40;65.20;;;;;;5032792;28;20072;-72
2020/12/26 10:21:01;;;;;;;3.90;2.10;;;10.30;65.20;;;;;;5032975;28;20487;-75
2020/12/26 10:23:27;;;;;;;7.15;2.55;;;10.30;65.40;;;;;;5032927;28;20143;-73
2020/12/26 10:25:53;;;;;;;4.35;2.22;;;10.30;65.40;;;;;;5032918;28;20386;-75
2020/12/26 10:28:19;;;;;;;4.15;2.00;;;10.30;65.10;;;;;;5032685;28;20029;-75
2020/12/26 10:30:48;;;;;;;5.30;2.30;;;10.40;64.90;;;;;;5032768;28;20033;-72
2020/12/26 10:33:14;;;;;;;4.85;2.15;;;10.40;64.60;;;;;;5032832;28;20036;-74
2020/12/26 10:35:40;;;;;;;5.47;2.17;;;10.50;64.30;;;;;;5032900;28;20026;-73
2020/12/26 10:38:06;;;;;;;4.10;2.00;;;10.60;64.00;;;;;;5032609;28;20057;-74
2020/12/26 10:40:32;;;;;;;6.35;2.22;;;10.70;64.00;;;;;;5032771;28;20029;-73
2020/12/26 10:42:58;;;;;;;5.95;2.40;;;10.80;64.30;;;;;;5033276;28;20033;-73
2020/12/26 10:45:23;;;;;;;6.15;2.15;;;10.90;63.50;;;;;;5036479;28;20029;-71
2020/12/26 10:47:49;;;;;;;5.63;2.30;;;11.00;62.90;;;;;;5036267;28;20037;-73
2020/12/26 10:50:15;;;;;;;6.38;2.22;;;10.90;63.10;;;;;;5036118;28;20462;-70
2020/12/26 10:52:40;;;;;;;4.28;2.15;;;11.00;62.70;;;;;;5034931;28;20079;-73
2020/12/26 10:55:06;;;;;;;5.55;2.35;;;10.90;62.70;;;;;;5036406;28;20021;-73
2020/12/26 10:57:31;;;;;;;6.15;2.88;;;11.00;62.90;;;;;;5036370;28;20121;-72
2020/12/26 10:59:57;;;;;;;5.32;2.80;;;11.00;63.00;;;;;;5036296;28;20029;-71
2020/12/26 11:02:23;;;;;;;6.05;2.72;;;11.00;62.90;;;;;;5018893;28;20117;-72
2020/12/26 11:04:49;;;;;;;7.00;3.03;;;11.00;62.90;;;;;;5036246;28;20018;-73
2020/12/26 11:07:15;;;;;;;5.72;2.90;;;11.10;63.00;;;;;;5036410;28;20021;-73
2020/12/26 11:09:40;;;;;;;6.60;3.35;;;11.10;62.80;;;;;;5036091;28;20041;-73
2020/12/26 11:12:06;;;;;;;7.30;3.13;;;11.10;63.00;;;;;;5034718;28;20080;-74
2020/12/26 11:14:32;;;;;;;5.40;3.00;;;11.10;63.10;;;;;;5036045;28;20017;-71
2020/12/26 11:16:58;;;;;;;8.10;3.50;;;11.10;63.00;;;;;;5036191;28;20069;-73
2020/12/26 11:19:24;;;;;;;7.82;2.92;;;11.00;63.00;;;;;;5035982;28;20451;-75
2020/12/26 11:21:51;;;;;;;9.77;3.25;;;10.90;63.00;;;;;;5036197;28;20517;-72
2020/12/26 11:24:17;;;;;;;6.70;2.63;;;10.80;63.50;;;;;;5035862;28;20033;-70
2020/12/26 11:26:43;;;;;;;3.90;2.30;;;10.80;63.70;;;;;;5035909;28;20036;-71
2020/12/26 11:29:09;;;;;;;5.25;2.65;;;10.70;63.80;;;;;;5035817;28;20033;-70
2020/12/26 11:31:35;;;;;;;6.50;2.72;;;10.60;64.00;;;;;;5035960;28;20152;-69
2020/12/26 11:34:00;;;;;;;8.43;2.85;;;10.40;64.50;;;;;;5035470;28;20463;-70
2020/12/26 11:36:28;;;;;;;8.38;2.75;;;10.40;64.90;;;;;;5035697;28;20363;-70
2020/12/26 11:38:54;;;;;;;6.40;3.03;;;10.40;64.90;;;;;;5035510;28;20037;-70
2020/12/26 11:41:29;;;;;;;6.15;2.60;;;10.40;65.50;;;;;;5035634;28;20024;-71
2020/12/26 11:43:58;;;;;;;6.20;3.10;;;10.50;64.90;;;;;;5035678;28;20539;-70
2020/12/26 11:46:24;;;;;;;7.65;3.55;;;10.50;64.50;;;;;;5035749;28;20040;-70
2020/12/26 11:48:50;;;;;;;5.47;3.13;;;10.50;64.50;;;;;;5035426;28;20100;-72
2020/12/26 11:51:17;;;;;;;6.15;3.10;;;10.70;64.30;;;;;;5035763;28;20113;-69
2020/12/26 11:53:42;;;;;;;6.20;2.58;;;10.80;64.00;;;;;;5035843;28;20382;-71
2020/12/26 11:56:15;;;;;;;7.22;3.08;;;10.90;63.60;;;;;;5034362;28;20120;-71
2020/12/26 11:58:42;;;;;;;5.82;2.53;;;11.00;63.10;;;;;;5035219;28;20088;-71
2020/12/26 12:01:09;;;;;;;7.28;2.60;;;11.00;62.50;;;;;;5034902;28;20056;-71
2020/12/26 12:03:35;;;;;;;6.10;2.92;;;11.10;62.50;;;;;;5035222;28;20032;-72
2020/12/26 12:06:02;;;;;;;5.90;2.53;;;11.20;62.00;;;;;;5034948;28;20100;-71
2020/12/26 12:08:27;;;;;;;4.35;2.08;;;11.20;61.10;;;;;;5034944;28;20067;-71
2020/12/26 12:10:53;;;;;;;4.43;1.98;;;11.10;60.90;;;;;;5034541;28;20459;-70
2020/12/26 12:13:19;;;;;;;4.32;2.08;;;11.10;61.20;;;;;;5034795;28;20100;-70
2020/12/26 12:15:45;;;;;;;5.47;2.00;;;11.10;61.10;;;;;;5016925;28;20057;-72
2020/12/26 12:18:11;;;;;;;9.85;2.00;;;11.10;61.00;;;;;;5034523;28;20099;-72
2020/12/26 12:20:37;;;;;;;4.60;1.83;;;11.10;60.90;;;;;;5034738;28;20026;-71
2020/12/26 12:23:02;;;;;;;4.95;2.45;;;11.10;60.60;;;;;;5034650;28;20034;-70
2020/12/26 12:25:30;;;;;;;7.38;2.00;;;11.20;60.70;;;;;;5034945;28;20037;-74
2020/12/26 12:27:56;;;;;;;5.15;1.88;;;11.30;60.50;;;;;;5034902;28;20028;-71
2020/12/26 12:30:23;;;;;;;4.90;2.13;;;11.20;59.90;;;;;;5034276;28;20029;-70
2020/12/26 12:32:49;;;;;;;5.45;2.05;;;11.20;60.10;;;;;;5034583;28;20409;-71
2020/12/26 12:35:16;;;;;;;5.25;2.55;;;11.10;60.40;;;;;;5034696;28;20080;-70
2020/12/26 12:37:51;;;;;;;5.05;2.33;;;11.10;60.40;;;;;;5034388;28;20034;-69
2020/12/26 12:40:17;;;;;;;4.85;2.50;;;11.10;61.60;;;;;;5034539;28;20108;-71
2020/12/26 12:42:44;;;;;;;6.55;2.42;;;11.00;61.40;;;;;;5034783;28;20049;-70
2020/12/26 12:45:09;;;;;;;5.40;2.47;;;11.00;61.80;;;;;;5034350;28;20028;-72
2020/12/26 12:47:35;;;;;;;5.53;3.10;;;11.00;62.30;;;;;;5034231;28;20379;-71
2020/12/26 12:50:01;;;;;;;9.82;3.25;;;10.90;62.40;;;;;;5034022;28;20384;-71
2020/12/26 12:52:27;;;;;;;7.00;3.05;;;11.00;62.70;;;;;;5016551;28;20140;-72